Terminal Aerodrome Forecast
Issued by NWS

Home | Current Version | Previous Version | Text Only | Print | Product List | Glossary On
Versions: 1 2 3 4 5 6 7 8 9 10 11 12 13
000
FTAK31 PAFA 292154 AAC
TAFATA
TAF AMD
PATA 292154Z 2922/3018 22010KT P6SM -RA SCT020 BKN050
      TEMPO 2922/3001 5SM -SHRA BKN020
     FM300100 23012KT 5SM -RA BR BKN020
     FM300600 25012KT 3SM -RA BR OVC015
     FM301700 20008KT 5SM -RA BR OVC015=

USA.gov is the U.S. government's official web portal to all federal, state and local government web resources and services.